Time;durP1;ratioP1;P1;durP2;ratioP2;P2;SDS_P1;SDS_P2;PMS_P1;PMS_P2;Temp;Humidity;BMP_temperature;BMP_pressure;BME280_temperature;BME280_humidity;BME280_pressure;Samples;Min_cycle;Max_cycle;Signal;HPM_P1;HPM_P2
2023/12/01 00:00:14;;;;;;;89.78;40.13;;;;;;;;;;1044728;28;20051;-65
2023/12/01 00:00:58;;;;;;;77.75;36.88;;;;;;;;;;1047220;28;20078;-64
2023/12/01 00:01:47;;;;;;;87.13;40.00;;;;;;;;;;1042734;28;20101;-64
2023/12/01 00:02:20;;;;;;;88.00;40.17;;;;;;;;;;1044788;28;20102;-64
2023/12/01 00:02:50;;;;;;;83.95;39.85;;;;;;;;;;1046779;28;20046;-63
2023/12/01 00:03:21;;;;;;;88.15;42.17;;;;;;;;;;1046441;28;20072;-65
2023/12/01 00:03:52;;;;;;;92.13;41.95;;;;;;;;;;1049080;28;20052;-64
2023/12/01 00:04:22;;;;;;;90.60;41.35;;;;;;;;;;1047434;28;20051;-63
2023/12/01 00:04:53;;;;;;;91.20;43.22;;;;;;;;;;1044710;28;20090;-64
2023/12/01 00:05:24;;;;;;;91.20;41.78;;;;;;;;;;1044558;28;20133;-65
2023/12/01 00:05:54;;;;;;;97.22;43.42;;;;;;;;;;1045596;28;20056;-65
2023/12/01 00:06:25;;;;;;;92.90;43.20;;;;;;;;;;1046119;28;20750;-63
2023/12/01 00:06:55;;;;;;;91.25;41.00;;;;;;;;;;1048854;28;20078;-64
2023/12/01 00:07:26;;;;;;;85.65;40.95;;;;;;;;;;1046547;28;20071;-63
2023/12/01 00:07:56;;;;;;;85.80;40.45;;;;;;;;;;1049632;28;20157;-64
2023/12/01 00:08:27;;;;;;;86.88;39.80;;;;;;;;;;1048382;28;20047;-63
2023/12/01 00:08:58;;;;;;;82.18;39.38;;;;;;;;;;1048159;28;20124;-64
2023/12/01 00:09:28;;;;;;;84.25;40.70;;;;;;;;;;1046808;28;20707;-65
2023/12/01 00:09:59;;;;;;;85.53;41.13;;;;;;;;;;1048709;28;20101;-64
2023/12/01 00:10:29;;;;;;;84.97;40.28;;;;;;;;;;1047499;28;20051;-65
2023/12/01 00:11:00;;;;;;;89.82;39.83;;;;;;;;;;1049040;28;20066;-64
2023/12/01 00:11:31;;;;;;;96.45;42.58;;;;;;;;;;1047759;28;22216;-65
2023/12/01 00:12:02;;;;;;;86.97;40.70;;;;;;;;;;1046843;28;20036;-64
2023/12/01 00:12:33;;;;;;;87.78;40.67;;;;;;;;;;1047890;28;20063;-63
2023/12/01 00:13:03;;;;;;;92.80;42.55;;;;;;;;;;1047608;28;20134;-64
2023/12/01 00:13:34;;;;;;;85.40;43.10;;;;;;;;;;1048533;28;20463;-64
2023/12/01 00:14:05;;;;;;;88.78;40.72;;;;;;;;;;1047813;28;20048;-64
2023/12/01 00:14:35;;;;;;;94.90;41.97;;;;;;;;;;1048116;28;20162;-64
2023/12/01 00:15:06;;;;;;;84.72;39.60;;;;;;;;;;1048466;28;20064;-64
2023/12/01 00:15:37;;;;;;;78.53;39.05;;;;;;;;;;1048987;28;20048;-65
2023/12/01 00:16:08;;;;;;;78.13;37.42;;;;;;;;;;1043980;28;20055;-65
2023/12/01 00:16:38;;;;;;;81.38;38.45;;;;;;;;;;1044226;28;20134;-65
2023/12/01 00:17:09;;;;;;;81.82;38.15;;;;;;;;;;1048408;28;20081;-65
2023/12/01 00:17:39;;;;;;;86.53;40.22;;;;;;;;;;1048283;28;20052;-64
2023/12/01 00:18:10;;;;;;;96.15;41.03;;;;;;;;;;1048986;28;20072;-65
2023/12/01 00:18:40;;;;;;;83.18;39.28;;;;;;;;;;1047877;28;20044;-63
2023/12/01 00:19:11;;;;;;;83.00;39.28;;;;;;;;;;1047920;28;20048;-64
2023/12/01 00:19:42;;;;;;;91.07;39.55;;;;;;;;;;1048924;28;20531;-66
2023/12/01 00:20:13;;;;;;;77.57;38.58;;;;;;;;;;1048699;28;20133;-66
2023/12/01 00:20:43;;;;;;;74.45;38.25;;;;;;;;;;1047526;28;20047;-66
2023/12/01 00:21:14;;;;;;;77.78;37.40;;;;;;;;;;1049113;28;20040;-65
2023/12/01 00:21:44;;;;;;;87.43;39.30;;;;;;;;;;1049026;28;20480;-65
2023/12/01 00:22:15;;;;;;;80.80;38.70;;;;;;;;;;1048023;28;20052;-64
2023/12/01 00:22:45;;;;;;;80.75;40.33;;;;;;;;;;1048711;28;20117;-65
2023/12/01 00:23:16;;;;;;;84.07;39.35;;;;;;;;;;1047362;28;20048;-64
2023/12/01 00:23:47;;;;;;;79.70;37.97;;;;;;;;;;1047758;28;20437;-65
2023/12/01 00:24:17;;;;;;;78.45;38.95;;;;;;;;;;1047321;28;20056;-66
2023/12/01 00:24:48;;;;;;;81.55;39.30;;;;;;;;;;1048245;28;20079;-63
2023/12/01 00:25:19;;;;;;;84.90;39.67;;;;;;;;;;1047689;28;20744;-63
2023/12/01 00:25:49;;;;;;;83.95;39.50;;;;;;;;;;1048620;28;20075;-64
2023/12/01 00:26:20;;;;;;;87.55;39.53;;;;;;;;;;1047852;28;20048;-64
2023/12/01 00:26:50;;;;;;;86.70;40.55;;;;;;;;;;1046503;28;20059;-63
2023/12/01 00:27:21;;;;;;;90.55;41.30;;;;;;;;;;1046748;28;20049;-63
2023/12/01 00:27:52;;;;;;;95.28;39.50;;;;;;;;;;1049287;28;20060;-65
2023/12/01 00:28:24;;;;;;;89.38;40.00;;;;;;;;;;1048128;28;20047;-65
2023/12/01 00:28:55;;;;;;;84.78;40.58;;;;;;;;;;1049475;28;20109;-64
2023/12/01 00:29:25;;;;;;;88.35;40.33;;;;;;;;;;1048450;28;20086;-64
2023/12/01 00:29:56;;;;;;;80.47;39.50;;;;;;;;;;1048484;28;20044;-64
2023/12/01 00:30:29;;;;;;;80.60;38.15;;;;;;;;;;1046744;28;20047;-63
2023/12/01 00:30:59;;;;;;;85.28;39.42;;;;;;;;;;1048488;28;20068;-64
2023/12/01 00:31:30;;;;;;;85.35;38.40;;;;;;;;;;1047947;28;20060;-65
2023/12/01 00:32:01;;;;;;;81.57;37.63;;;;;;;;;;1048842;28;20040;-63
2023/12/01 00:32:32;;;;;;;79.22;39.40;;;;;;;;;;1046986;28;20091;-65
2023/12/01 00:33:03;;;;;;;87.25;39.03;;;;;;;;;;1047084;28;20047;-65
2023/12/01 00:33:34;;;;;;;81.45;38.72;;;;;;;;;;1047483;28;20059;-64
2023/12/01 00:34:04;;;;;;;85.53;38.00;;;;;;;;;;1048352;28;20728;-64
2023/12/01 00:34:35;;;;;;;83.45;40.03;;;;;;;;;;1047168;28;20072;-65
2023/12/01 00:35:06;;;;;;;86.35;38.65;;;;;;;;;;1046388;28;20500;-64
2023/12/01 00:35:36;;;;;;;75.38;38.42;;;;;;;;;;1048260;28;20044;-64
2023/12/01 00:36:07;;;;;;;86.43;39.35;;;;;;;;;;1047931;28;20045;-64
2023/12/01 00:36:38;;;;;;;87.32;39.58;;;;;;;;;;1047534;28;20075;-65
2023/12/01 00:37:08;;;;;;;89.75;41.33;;;;;;;;;;1047194;28;20421;-65
2023/12/01 00:37:39;;;;;;;90.85;42.22;;;;;;;;;;1047759;28;20038;-63
2023/12/01 00:38:10;;;;;;;93.57;42.08;;;;;;;;;;1046907;28;20155;-63
2023/12/01 00:38:40;;;;;;;101.85;44.08;;;;;;;;;;1047176;28;20925;-63
2023/12/01 00:39:12;;;;;;;93.70;41.22;;;;;;;;;;1048454;28;20436;-64
2023/12/01 00:39:42;;;;;;;89.63;40.95;;;;;;;;;;1047556;28;20544;-65
2023/12/01 00:40:13;;;;;;;81.53;40.55;;;;;;;;;;1047425;28;20109;-65
2023/12/01 00:40:44;;;;;;;100.07;42.65;;;;;;;;;;1048506;28;23647;-66
2023/12/01 00:41:14;;;;;;;79.90;39.90;;;;;;;;;;1047881;28;20203;-65
2023/12/01 00:41:45;;;;;;;84.35;39.92;;;;;;;;;;1048607;28;21349;-64
2023/12/01 00:42:17;;;;;;;85.32;41.40;;;;;;;;;;1046160;28;20052;-63
2023/12/01 00:42:47;;;;;;;89.22;41.45;;;;;;;;;;1048615;28;20048;-64
2023/12/01 00:43:18;;;;;;;87.25;40.13;;;;;;;;;;1048435;28;20048;-64
2023/12/01 00:43:49;;;;;;;92.50;41.25;;;;;;;;;;1049386;28;20051;-65
2023/12/01 00:44:20;;;;;;;86.57;40.03;;;;;;;;;;1046055;28;20125;-64
2023/12/01 00:44:50;;;;;;;87.40;42.80;;;;;;;;;;1048983;28;20048;-64
2023/12/01 00:45:21;;;;;;;93.38;41.58;;;;;;;;;;1046682;28;20040;-64
2023/12/01 00:45:51;;;;;;;87.63;40.50;;;;;;;;;;1048120;28;20049;-65
2023/12/01 00:46:22;;;;;;;90.32;42.20;;;;;;;;;;1046843;28;20043;-66
2023/12/01 00:46:53;;;;;;;89.65;41.55;;;;;;;;;;1048493;28;20055;-63
2023/12/01 00:47:24;;;;;;;86.43;41.08;;;;;;;;;;1046215;28;20045;-65
2023/12/01 00:47:54;;;;;;;85.55;40.53;;;;;;;;;;1048082;28;20048;-64
2023/12/01 00:48:25;;;;;;;85.65;40.17;;;;;;;;;;1045352;28;20098;-66
2023/12/01 00:48:56;;;;;;;94.50;40.95;;;;;;;;;;1047480;28;20404;-63
2023/12/01 00:49:26;;;;;;;93.00;42.45;;;;;;;;;;1048104;28;20142;-64
2023/12/01 00:49:57;;;;;;;90.75;40.72;;;;;;;;;;1048588;28;20460;-65
2023/12/01 00:50:27;;;;;;;84.80;40.08;;;;;;;;;;1047359;28;20160;-64
2023/12/01 00:50:58;;;;;;;85.40;40.38;;;;;;;;;;1047194;28;20036;-63
2023/12/01 00:51:29;;;;;;;91.53;41.15;;;;;;;;;;1046661;28;20057;-64
2023/12/01 00:51:59;;;;;;;95.60;42.95;;;;;;;;;;1047855;28;20044;-64
2023/12/01 00:52:31;;;;;;;93.32;42.20;;;;;;;;;;1046776;28;20033;-65
2023/12/01 00:53:01;;;;;;;91.72;42.38;;;;;;;;;;1046801;28;20092;-66
2023/12/01 00:53:32;;;;;;;94.60;43.20;;;;;;;;;;1047643;28;20133;-63
2023/12/01 00:54:02;;;;;;;83.00;41.28;;;;;;;;;;1049666;28;20692;-66
2023/12/01 00:54:33;;;;;;;86.85;39.08;;;;;;;;;;1047103;28;20056;-65
2023/12/01 00:55:05;;;;;;;85.40;39.63;;;;;;;;;;1048674;28;20199;-63
2023/12/01 00:55:35;;;;;;;93.07;41.35;;;;;;;;;;1049717;28;20120;-65
2023/12/01 00:56:07;;;;;;;84.95;40.22;;;;;;;;;;1048011;28;20094;-64
2023/12/01 00:56:37;;;;;;;92.72;42.35;;;;;;;;;;1048137;28;20063;-64
2023/12/01 00:57:08;;;;;;;83.30;41.22;;;;;;;;;;1049031;28;20087;-65
2023/12/01 00:57:39;;;;;;;86.68;40.42;;;;;;;;;;1048740;28;20649;-65
2023/12/01 00:58:09;;;;;;;82.85;42.35;;;;;;;;;;1048456;28;20047;-65
2023/12/01 00:58:40;;;;;;;93.50;42.53;;;;;;;;;;1048739;28;20056;-64
2023/12/01 00:59:11;;;;;;;93.57;42.90;;;;;;;;;;1048555;28;20491;-65
2023/12/01 00:59:41;;;;;;;93.22;41.30;;;;;;;;;;1048093;28;20086;-64
2023/12/01 01:00:12;;;;;;;92.03;41.03;;;;;;;;;;1049226;28;20036;-64
2023/12/01 01:00:42;;;;;;;90.55;41.75;;;;;;;;;;1050148;28;20051;-67
2023/12/01 01:01:13;;;;;;;94.18;43.80;;;;;;;;;;1050369;28;20078;-64
2023/12/01 01:01:44;;;;;;;90.82;43.58;;;;;;;;;;1048594;28;20052;-64
2023/12/01 01:02:14;;;;;;;91.00;42.35;;;;;;;;;;1047587;28;20118;-65
2023/12/01 01:02:45;;;;;;;93.00;42.47;;;;;;;;;;1050369;28;20109;-63
2023/12/01 01:03:16;;;;;;;87.63;40.40;;;;;;;;;;1048184;28;20040;-64
2023/12/01 01:03:47;;;;;;;90.30;42.90;;;;;;;;;;1049909;28;20052;-65
2023/12/01 01:04:17;;;;;;;87.50;42.50;;;;;;;;;;1047495;28;20044;-65
2023/12/01 01:04:48;;;;;;;97.60;44.60;;;;;;;;;;1050645;28;20059;-64
2023/12/01 01:05:19;;;;;;;94.95;43.08;;;;;;;;;;1049143;28;20048;-64
2023/12/01 01:05:49;;;;;;;90.25;42.75;;;;;;;;;;1048258;28;20043;-63
2023/12/01 01:06:20;;;;;;;89.20;41.33;;;;;;;;;;1048734;28;20040;-66
2023/12/01 01:06:51;;;;;;;93.93;41.08;;;;;;;;;;1049015;28;20376;-64
2023/12/01 01:07:21;;;;;;;93.82;42.08;;;;;;;;;;1047767;28;20110;-64
2023/12/01 01:07:52;;;;;;;94.20;41.80;;;;;;;;;;1050613;28;20040;-63
2023/12/01 01:08:22;;;;;;;84.68;40.00;;;;;;;;;;1049239;28;20803;-63
2023/12/01 01:08:53;;;;;;;85.53;40.72;;;;;;;;;;1049506;28;20101;-64
2023/12/01 01:09:23;;;;;;;88.13;41.75;;;;;;;;;;1048530;28;20188;-64
2023/12/01 01:09:54;;;;;;;86.22;41.38;;;;;;;;;;1049797;28;20155;-63
2023/12/01 01:10:25;;;;;;;88.85;41.70;;;;;;;;;;1049647;28;20123;-64
2023/12/01 01:10:56;;;;;;;83.53;40.47;;;;;;;;;;1050274;28;20047;-63
2023/12/01 01:11:27;;;;;;;94.78;43.35;;;;;;;;;;1049459;28;20460;-64
2023/12/01 01:11:57;;;;;;;91.72;41.72;;;;;;;;;;1047234;28;20500;-63
2023/12/01 01:12:28;;;;;;;95.78;42.88;;;;;;;;;;1049105;28;20052;-64
2023/12/01 01:12:58;;;;;;;95.28;43.05;;;;;;;;;;1050077;28;20083;-64
2023/12/01 01:13:29;;;;;;;89.00;41.60;;;;;;;;;;1049605;28;20114;-63
2023/12/01 01:14:00;;;;;;;92.65;42.00;;;;;;;;;;1049222;28;20059;-64
2023/12/01 01:14:30;;;;;;;89.18;40.97;;;;;;;;;;1049202;28;20831;-66
2023/12/01 01:15:04;;;;;;;86.15;41.10;;;;;;;;;;1050162;28;20503;-65
2023/12/01 01:15:35;;;;;;;85.38;38.45;;;;;;;;;;1047826;28;20045;-64
2023/12/01 01:16:08;;;;;;;80.05;40.47;;;;;;;;;;1049438;28;20048;-64
2023/12/01 01:16:38;;;;;;;89.25;42.78;;;;;;;;;;1047691;28;20071;-63
2023/12/01 01:17:09;;;;;;;97.28;41.53;;;;;;;;;;1050350;28;20048;-63
2023/12/01 01:17:40;;;;;;;99.82;41.35;;;;;;;;;;1049933;28;20060;-65
2023/12/01 01:18:10;;;;;;;84.97;39.60;;;;;;;;;;1049966;28;20052;-65
2023/12/01 01:18:41;;;;;;;86.07;40.58;;;;;;;;;;1047368;28;20048;-64
2023/12/01 01:19:11;;;;;;;79.28;39.28;;;;;;;;;;1050085;28;20044;-64
2023/12/01 01:19:43;;;;;;;84.95;41.97;;;;;;;;;;1048914;28;20039;-64
2023/12/01 01:20:13;;;;;;;86.32;41.80;;;;;;;;;;1049175;28;20392;-65
2023/12/01 01:20:44;;;;;;;97.60;42.53;;;;;;;;;;1049587;28;20428;-64
2023/12/01 01:21:14;;;;;;;87.30;41.67;;;;;;;;;;1050070;28;20189;-64
2023/12/01 01:21:45;;;;;;;92.03;41.95;;;;;;;;;;1050897;28;20060;-66
2023/12/01 01:22:16;;;;;;;102.43;42.03;;;;;;;;;;1047141;28;20130;-65
2023/12/01 01:22:46;;;;;;;88.60;41.25;;;;;;;;;;1049960;28;20233;-64
2023/12/01 01:23:17;;;;;;;86.18;40.28;;;;;;;;;;1049241;28;20060;-65
2023/12/01 01:23:47;;;;;;;86.78;41.35;;;;;;;;;;1049356;28;20392;-64
2023/12/01 01:24:18;;;;;;;89.30;44.20;;;;;;;;;;1048834;28;20047;-63
2023/12/01 01:24:48;;;;;;;90.55;41.83;;;;;;;;;;1048356;28;20389;-64
2023/12/01 01:25:19;;;;;;;88.38;42.63;;;;;;;;;;1049154;28;20463;-63
2023/12/01 01:25:50;;;;;;;88.65;41.72;;;;;;;;;;1049328;28;20139;-64
2023/12/01 01:26:21;;;;;;;93.28;43.58;;;;;;;;;;1047919;28;20052;-64
2023/12/01 01:26:52;;;;;;;83.22;40.67;;;;;;;;;;1048739;28;20052;-64
2023/12/01 01:27:22;;;;;;;87.47;41.28;;;;;;;;;;1046375;28;20559;-64
2023/12/01 01:27:53;;;;;;;85.45;40.83;;;;;;;;;;1049242;28;20060;-64
2023/12/01 01:28:24;;;;;;;91.63;42.47;;;;;;;;;;1048867;28;20773;-65
2023/12/01 01:28:54;;;;;;;92.88;41.92;;;;;;;;;;1049700;28;20082;-65
2023/12/01 01:29:25;;;;;;;83.82;39.70;;;;;;;;;;1047294;28;20572;-64
2023/12/01 01:29:55;;;;;;;85.20;40.70;;;;;;;;;;1050188;28;20717;-64
2023/12/01 01:30:26;;;;;;;84.82;41.80;;;;;;;;;;1050000;28;20062;-64
2023/12/01 01:30:57;;;;;;;87.55;39.65;;;;;;;;;;1048856;28;20785;-65
2023/12/01 01:31:28;;;;;;;89.47;41.47;;;;;;;;;;1048665;28;20168;-64
2023/12/01 01:31:59;;;;;;;84.55;40.42;;;;;;;;;;1050042;28;20069;-65
2023/12/01 01:32:29;;;;;;;86.85;41.42;;;;;;;;;;1048304;28;20051;-63
2023/12/01 01:33:00;;;;;;;81.70;39.67;;;;;;;;;;1049216;28;20055;-66
2023/12/01 01:33:31;;;;;;;87.82;41.05;;;;;;;;;;1049330;28;20665;-65
2023/12/01 01:34:02;;;;;;;96.07;42.40;;;;;;;;;;1049894;28;20048;-65
2023/12/01 01:34:32;;;;;;;84.55;40.13;;;;;;;;;;1048739;28;20126;-64
2023/12/01 01:35:03;;;;;;;86.70;40.38;;;;;;;;;;1050128;28;20407;-65
2023/12/01 01:35:34;;;;;;;82.65;40.75;;;;;;;;;;1048386;28;20550;-65
2023/12/01 01:36:05;;;;;;;86.43;41.95;;;;;;;;;;1049898;28;20101;-64
2023/12/01 01:36:35;;;;;;;93.25;41.72;;;;;;;;;;1046985;28;20052;-64
2023/12/01 01:37:09;;;;;;;88.57;42.95;;;;;;;;;;1050227;28;20051;-64
2023/12/01 01:37:40;;;;;;;94.22;42.22;;;;;;;;;;1048897;28;20051;-65
2023/12/01 01:38:10;;;;;;;93.80;42.53;;;;;;;;;;1049109;28;20132;-64
2023/12/01 01:38:41;;;;;;;93.00;42.70;;;;;;;;;;1049148;28;20721;-64
2023/12/01 01:39:11;;;;;;;84.30;41.30;;;;;;;;;;1050354;28;20040;-63
2023/12/01 01:39:42;;;;;;;91.07;42.83;;;;;;;;;;1050541;28;20064;-63
2023/12/01 01:40:13;;;;;;;86.50;41.92;;;;;;;;;;1048120;28;20067;-63
2023/12/01 01:40:44;;;;;;;92.45;41.55;;;;;;;;;;1050836;28;20178;-64
2023/12/01 01:41:15;;;;;;;87.47;39.58;;;;;;;;;;1049437;28;20044;-64
2023/12/01 01:41:45;;;;;;;86.28;40.97;;;;;;;;;;1050224;28;20079;-64
2023/12/01 01:42:16;;;;;;;89.60;41.33;;;;;;;;;;1049333;28;20767;-66
2023/12/01 01:42:46;;;;;;;88.95;42.13;;;;;;;;;;1049659;28;20060;-64
2023/12/01 01:43:21;;;;;;;93.18;41.67;;;;;;;;;;1048709;28;20050;-64
2023/12/01 01:43:52;;;;;;;89.63;42.03;;;;;;;;;;1050319;28;20044;-64
2023/12/01 01:44:23;;;;;;;95.68;42.33;;;;;;;;;;1048688;28;20039;-63
2023/12/01 01:44:53;;;;;;;86.95;41.47;;;;;;;;;;1049417;28;20101;-64
2023/12/01 01:45:24;;;;;;;90.68;42.70;;;;;;;;;;1048620;28;20142;-64
2023/12/01 01:46:09;;;;;;;94.75;42.72;;;;;;;;;;1050273;28;20063;-63
2023/12/01 01:46:40;;;;;;;95.68;41.45;;;;;;;;;;1047139;28;20051;-66
2023/12/01 01:47:10;;;;;;;90.40;42.28;;;;;;;;;;1049539;28;20048;-63
2023/12/01 01:47:41;;;;;;;86.60;40.97;;;;;;;;;;1049877;28;20132;-63
2023/12/01 01:48:12;;;;;;;91.95;43.30;;;;;;;;;;1049208;28;20048;-64
2023/12/01 01:48:43;;;;;;;92.60;41.72;;;;;;;;;;1044916;28;20369;-65
2023/12/01 01:49:14;;;;;;;89.72;41.03;;;;;;;;;;1045213;28;20147;-64
2023/12/01 01:49:45;;;;;;;85.90;40.60;;;;;;;;;;1044184;28;20126;-64
2023/12/01 01:50:16;;;;;;;91.15;41.65;;;;;;;;;;1041801;28;20551;-64
2023/12/01 01:50:47;;;;;;;94.13;44.30;;;;;;;;;;1043695;28;20056;-65
2023/12/01 01:51:19;;;;;;;89.93;42.47;;;;;;;;;;1043443;28;20090;-65
2023/12/01 01:51:49;;;;;;;91.95;42.55;;;;;;;;;;1047439;28;20770;-65
2023/12/01 01:52:21;;;;;;;87.30;43.22;;;;;;;;;;1044607;28;20777;-65
2023/12/01 01:52:54;;;;;;;97.15;43.60;;;;;;;;;;1043981;28;20163;-64
2023/12/01 01:53:24;;;;;;;86.55;39.97;;;;;;;;;;1042614;28;20044;-63
2023/12/01 01:53:55;;;;;;;90.10;42.38;;;;;;;;;;1043223;28;20056;-64
2023/12/01 01:54:26;;;;;;;87.70;41.50;;;;;;;;;;1042078;28;20664;-65
2023/12/01 01:54:56;;;;;;;84.60;40.33;;;;;;;;;;1043638;28;20555;-64
2023/12/01 01:55:27;;;;;;;88.07;41.80;;;;;;;;;;1041621;28;20053;-64
2023/12/01 01:55:58;;;;;;;89.43;40.78;;;;;;;;;;1045125;28;20048;-65
2023/12/01 01:56:31;;;;;;;86.63;39.75;;;;;;;;;;1044377;28;20059;-66
2023/12/01 01:57:02;;;;;;;91.50;41.88;;;;;;;;;;1042368;28;20107;-65
2023/12/01 01:57:37;;;;;;;105.35;42.55;;;;;;;;;;1042295;28;20137;-65
2023/12/01 01:58:09;;;;;;;91.35;41.75;;;;;;;;;;1046056;28;20148;-65
2023/12/01 01:58:41;;;;;;;94.60;43.22;;;;;;;;;;1043061;28;20048;-64
2023/12/01 01:59:13;;;;;;;89.43;40.58;;;;;;;;;;1042081;28;20041;-64
2023/12/01 01:59:44;;;;;;;88.95;40.90;;;;;;;;;;1043122;28;20048;-66
2023/12/01 02:00:18;;;;;;;84.28;41.80;;;;;;;;;;1041064;28;20053;-66
2023/12/01 02:00:49;;;;;;;86.57;39.97;;;;;;;;;;1042456;28;20490;-65
2023/12/01 02:01:22;;;;;;;88.47;40.75;;;;;;;;;;1041593;28;20543;-64
2023/12/01 02:01:52;;;;;;;81.38;39.88;;;;;;;;;;1043268;28;20068;-66
2023/12/01 02:02:23;;;;;;;90.22;41.60;;;;;;;;;;1041492;28;20040;-64
2023/12/01 02:02:53;;;;;;;92.30;43.65;;;;;;;;;;1044613;28;20045;-64
2023/12/01 02:03:24;;;;;;;93.05;39.63;;;;;;;;;;1041010;28;20048;-64
2023/12/01 02:03:55;;;;;;;82.97;41.28;;;;;;;;;;1042753;28;20048;-64
2023/12/01 02:04:26;;;;;;;89.97;39.88;;;;;;;;;;1041241;28;20064;-64
2023/12/01 02:04:56;;;;;;;90.95;41.72;;;;;;;;;;1045069;28;20385;-63
2023/12/01 02:05:27;;;;;;;85.88;40.95;;;;;;;;;;1043319;28;20059;-64
2023/12/01 02:05:57;;;;;;;88.30;42.53;;;;;;;;;;1042649;28;20045;-66
2023/12/01 02:06:32;;;;;;;92.25;41.97;;;;;;;;;;1041369;28;20041;-64
2023/12/01 02:07:03;;;;;;;85.30;42.40;;;;;;;;;;1042243;28;20053;-65
2023/12/01 02:07:34;;;;;;;98.15;43.65;;;;;;;;;;1042092;28;20045;-64
2023/12/01 02:08:21;;;;;;;99.78;42.28;;;;;;;;;;1041353;28;20144;-65
2023/12/01 02:08:53;;;;;;;90.50;39.80;;;;;;;;;;1042942;28;20097;-63
2023/12/01 02:09:24;;;;;;;86.13;41.08;;;;;;;;;;1045109;28;20082;-64
2023/12/01 02:09:54;;;;;;;91.00;39.28;;;;;;;;;;1045092;28;20037;-64
2023/12/01 02:10:25;;;;;;;95.72;41.70;;;;;;;;;;1043377;28;20041;-64
2023/12/01 02:10:57;;;;;;;88.63;41.38;;;;;;;;;;1045468;28;20037;-65
2023/12/01 02:11:27;;;;;;;87.97;39.65;;;;;;;;;;1047878;28;20510;-63
2023/12/01 02:11:59;;;;;;;87.22;40.03;;;;;;;;;;1049107;28;20051;-64
2023/12/01 02:12:29;;;;;;;84.28;41.45;;;;;;;;;;1048646;28;20046;-64
2023/12/01 02:13:00;;;;;;;88.90;39.47;;;;;;;;;;1049286;28;20055;-63
2023/12/01 02:13:31;;;;;;;82.50;39.65;;;;;;;;;;1047961;28;20055;-64
2023/12/01 02:14:02;;;;;;;91.18;40.22;;;;;;;;;;1048766;28;20058;-66
2023/12/01 02:14:33;;;;;;;85.93;40.67;;;;;;;;;;1049214;28;20078;-63
2023/12/01 02:15:04;;;;;;;93.50;41.40;;;;;;;;;;1049189;28;20047;-65
2023/12/01 02:15:35;;;;;;;89.85;40.33;;;;;;;;;;1047100;28;20556;-64
2023/12/01 02:16:08;;;;;;;95.32;42.67;;;;;;;;;;1045551;28;20068;-63
2023/12/01 02:16:45;;;;;;;85.28;40.33;;;;;;;;;;1044606;28;20056;-64
2023/12/01 02:17:16;;;;;;;85.97;40.22;;;;;;;;;;1043940;28;20063;-65
2023/12/01 02:17:48;;;;;;;88.95;39.53;;;;;;;;;;1041191;28;20057;-64
2023/12/01 02:18:25;;;;;;;90.80;41.45;;;;;;;;;;1043293;28;20044;-64
2023/12/01 02:18:55;;;;;;;85.38;38.97;;;;;;;;;;1046599;28;20687;-65
2023/12/01 02:19:26;;;;;;;83.68;39.83;;;;;;;;;;1046092;28;20544;-65
2023/12/01 02:19:56;;;;;;;80.63;40.72;;;;;;;;;;1044160;28;20055;-65
2023/12/01 02:20:27;;;;;;;86.65;39.17;;;;;;;;;;1045670;28;20169;-62
2023/12/01 02:20:58;;;;;;;82.65;39.63;;;;;;;;;;1050042;28;20803;-64
2023/12/01 02:21:35;;;;;;;89.90;41.08;;;;;;;;;;1046930;28;20052;-64
2023/12/01 02:22:06;;;;;;;80.70;39.13;;;;;;;;;;1044956;28;20082;-64
2023/12/01 02:22:37;;;;;;;89.72;42.53;;;;;;;;;;1049167;28;20040;-65
2023/12/01 02:23:07;;;;;;;89.60;40.25;;;;;;;;;;1049471;28;20845;-65
2023/12/01 02:23:38;;;;;;;87.38;41.33;;;;;;;;;;1046247;28;20051;-65
2023/12/01 02:24:09;;;;;;;89.13;40.33;;;;;;;;;;1045745;28;20468;-65
2023/12/01 02:24:39;;;;;;;86.53;38.90;;;;;;;;;;1044967;28;20040;-64
2023/12/01 02:25:10;;;;;;;87.43;39.83;;;;;;;;;;1044234;28;20119;-65
2023/12/01 02:25:40;;;;;;;84.32;41.60;;;;;;;;;;1049969;28;20040;-64
2023/12/01 02:26:11;;;;;;;78.95;39.20;;;;;;;;;;1049366;28;20044;-65
2023/12/01 02:26:41;;;;;;;83.80;39.88;;;;;;;;;;1048108;28;20048;-65
2023/12/01 02:27:12;;;;;;;85.53;39.08;;;;;;;;;;1047070;28;20114;-64
2023/12/01 02:27:43;;;;;;;89.35;40.53;;;;;;;;;;1048909;28;20040;-64
2023/12/01 02:28:14;;;;;;;84.07;38.00;;;;;;;;;;1049368;28;20056;-65
2023/12/01 02:28:45;;;;;;;78.07;36.97;;;;;;;;;;1048124;28;20090;-65
2023/12/01 02:29:16;;;;;;;85.32;39.28;;;;;;;;;;1048031;28;20040;-64
2023/12/01 02:29:47;;;;;;;84.20;38.65;;;;;;;;;;1049023;28;20044;-65
2023/12/01 02:30:17;;;;;;;80.53;39.70;;;;;;;;;;1047853;28;20063;-66
2023/12/01 02:30:51;;;;;;;77.88;39.15;;;;;;;;;;1049873;28;20163;-64
2023/12/01 02:31:21;;;;;;;83.20;38.78;;;;;;;;;;1049125;28;20514;-64
2023/12/01 02:31:52;;;;;;;80.57;38.13;;;;;;;;;;1049527;28;20419;-65
2023/12/01 02:32:22;;;;;;;76.35;38.53;;;;;;;;;;1048179;28;20726;-64
2023/12/01 02:32:53;;;;;;;84.57;38.83;;;;;;;;;;1048164;28;20040;-65
2023/12/01 02:33:24;;;;;;;81.70;39.75;;;;;;;;;;1050079;28;20040;-64
2023/12/01 02:33:55;;;;;;;87.05;39.92;;;;;;;;;;1049042;28;20048;-65
2023/12/01 02:34:26;;;;;;;87.70;41.53;;;;;;;;;;1049185;28;20058;-64
2023/12/01 02:34:56;;;;;;;87.05;40.20;;;;;;;;;;1047320;28;20136;-64
2023/12/01 02:35:30;;;;;;;84.63;37.67;;;;;;;;;;1048768;28;20032;-64
2023/12/01 02:36:00;;;;;;;76.28;39.00;;;;;;;;;;1048939;28;20154;-64
2023/12/01 02:36:31;;;;;;;81.85;38.17;;;;;;;;;;1048138;28;20048;-64
2023/12/01 02:37:02;;;;;;;83.35;38.97;;;;;;;;;;1048616;28;20123;-64
2023/12/01 02:37:32;;;;;;;84.95;38.88;;;;;;;;;;1047864;28;20044;-66
2023/12/01 02:38:03;;;;;;;90.53;39.95;;;;;;;;;;1049827;28;20048;-63
2023/12/01 02:38:34;;;;;;;87.75;39.72;;;;;;;;;;1048088;28;20040;-66
2023/12/01 02:39:07;;;;;;;84.82;39.50;;;;;;;;;;1049465;28;21165;-64
2023/12/01 02:39:38;;;;;;;79.78;38.67;;;;;;;;;;1049153;28;20051;-65
2023/12/01 02:40:16;;;;;;;82.65;39.40;;;;;;;;;;1049555;28;20048;-65
2023/12/01 02:40:50;;;;;;;83.20;38.38;;;;;;;;;;1043346;28;20060;-65
2023/12/01 02:41:20;;;;;;;80.13;38.42;;;;;;;;;;1044962;28;20044;-66
2023/12/01 02:41:51;;;;;;;85.95;41.58;;;;;;;;;;1049009;28;20051;-65
2023/12/01 02:42:21;;;;;;;87.78;39.83;;;;;;;;;;1048750;28;20411;-63
2023/12/01 02:42:53;;;;;;;84.20;39.22;;;;;;;;;;1050086;28;20036;-65
2023/12/01 02:43:23;;;;;;;81.10;38.45;;;;;;;;;;1047734;28;20043;-63
2023/12/01 02:43:54;;;;;;;85.60;38.85;;;;;;;;;;1040315;28;20052;-66
2023/12/01 02:44:25;;;;;;;79.47;38.05;;;;;;;;;;1042243;28;20049;-66
2023/12/01 02:44:55;;;;;;;81.75;38.30;;;;;;;;;;1045477;28;20051;-64
2023/12/01 02:45:28;;;;;;;83.38;38.47;;;;;;;;;;1047218;28;20032;-65
2023/12/01 02:45:58;;;;;;;82.97;39.60;;;;;;;;;;1045750;28;20044;-65
2023/12/01 02:46:29;;;;;;;86.55;39.97;;;;;;;;;;1047334;28;20155;-63
2023/12/01 02:46:59;;;;;;;78.43;37.33;;;;;;;;;;1050470;28;20040;-64
2023/12/01 02:47:30;;;;;;;83.70;39.03;;;;;;;;;;1049683;28;20051;-64
2023/12/01 02:48:00;;;;;;;85.85;40.42;;;;;;;;;;1048214;28;20140;-66
2023/12/01 02:48:31;;;;;;;78.25;38.88;;;;;;;;;;1047755;28;20083;-65
2023/12/01 02:49:02;;;;;;;83.85;39.08;;;;;;;;;;1049200;28;20040;-65
2023/12/01 02:49:33;;;;;;;83.57;39.25;;;;;;;;;;1049006;28;20052;-65
2023/12/01 02:50:04;;;;;;;86.63;38.60;;;;;;;;;;1049283;28;20048;-64
2023/12/01 02:50:35;;;;;;;81.95;40.40;;;;;;;;;;1049357;28;20158;-64
2023/12/01 02:51:07;;;;;;;83.03;38.90;;;;;;;;;;1047125;28;20131;-63
2023/12/01 02:51:37;;;;;;;78.95;38.47;;;;;;;;;;1048630;28;20036;-65
2023/12/01 02:52:08;;;;;;;83.57;38.60;;;;;;;;;;1048795;28;20048;-64
2023/12/01 02:52:39;;;;;;;87.05;40.08;;;;;;;;;;1049383;28;20056;-65
2023/12/01 02:53:09;;;;;;;81.45;40.47;;;;;;;;;;1048488;28;20048;-64
2023/12/01 02:53:40;;;;;;;88.57;39.67;;;;;;;;;;1048426;28;20437;-65
2023/12/01 02:54:10;;;;;;;85.88;39.03;;;;;;;;;;1048208;28;20048;-64
2023/12/01 02:54:41;;;;;;;84.63;38.92;;;;;;;;;;1049601;28;20056;-64
2023/12/01 02:55:11;;;;;;;83.40;39.35;;;;;;;;;;1047223;28;20048;-64
2023/12/01 02:55:42;;;;;;;82.97;38.55;;;;;;;;;;1046649;28;20059;-63
2023/12/01 02:56:13;;;;;;;82.15;39.53;;;;;;;;;;1044897;28;20052;-63
2023/12/01 02:56:44;;;;;;;85.13;39.25;;;;;;;;;;1044700;28;20041;-63
2023/12/01 02:57:15;;;;;;;86.60;40.20;;;;;;;;;;1044632;28;20075;-64
2023/12/01 02:57:45;;;;;;;83.85;39.58;;;;;;;;;;1049380;28;20056;-64
2023/12/01 02:58:16;;;;;;;88.13;39.25;;;;;;;;;;1048425;28;20638;-65
2023/12/01 02:58:46;;;;;;;83.85;39.65;;;;;;;;;;1048742;28;20085;-65
2023/12/01 02:59:17;;;;;;;85.50;39.33;;;;;;;;;;1046745;28;20166;-64
2023/12/01 02:59:48;;;;;;;89.43;41.00;;;;;;;;;;1049997;28;20052;-63
2023/12/01 03:00:19;;;;;;;83.45;38.75;;;;;;;;;;1047930;28;20101;-65
2023/12/01 03:00:50;;;;;;;93.97;38.80;;;;;;;;;;1049287;28;20040;-64